METAR Data
IDs: Format: Raw Decoded Include TAF

Data at: 0424 UTC 26 Sep 2018

KCIU 260408Z AUTO 32012KT 10SM -RA OVC005 09/08 A2971 RMK AO2 P0000
KCIU 260356Z AUTO 33015KT 10SM -RA OVC003 09/09 A2970 RMK AO2 CIG 002V006 SLP081 P0000 T00940089
KCIU 260256Z AUTO 33011KT 9SM -RA OVC003 11/11 A2970 RMK AO2 RAB50 SLP081 P0000 60000 T01110106 58021
KCIU 260156Z AUTO 32006KT 8SM OVC003 12/12 A2975 RMK AO2 SLP097 T01170117
KCIU 260145Z AUTO 01005KT 3SM BR OVC003 12/12 A2974 RMK AO2
KCIU 260121Z AUTO 33007KT 2 1/2SM BR BKN003 OVC008 12/12 A2975 RMK AO2 VIS 2V4
KCIU 260056Z AUTO 33007KT 10SM OVC006 12/12 A2976 RMK AO2 CIG 004V009 SLP102 T01220117
KCIU 260014Z AUTO 35009KT 10SM SCT005 OVC008 13/12 A2976 RMK AO2
KCIU 252356Z AUTO 36007KT 10SM OVC005 13/12 A2977 RMK AO2 SLP103 T01280122 10206 20128 56013
KCIU 252256Z AUTO 33006KT 10SM BKN005 15/14 A2977 RMK AO2 SLP105 T01500139
KCIU 252249Z AUTO 34007KT 10SM SCT005 BKN050 15/14 A2978 RMK AO2
KCIU 252156Z AUTO 36007KT 10SM SCT060 17/14 A2978 RMK AO2 SLP106 T01670144
KCIU 252142Z AUTO 34006KT 10SM FEW017 SCT022 BKN060 17/15 A2979 RMK AO2
KCIU 252056Z AUTO 36006KT 10SM BKN020 OVC025 16/14 A2980 RMK AO2 SLP115 T01610144 58007
KCIU 252032Z AUTO 35007KT 10SM FEW015 BKN020 OVC060 16/15 A2982 RMK AO2
KCIU 251956Z AUTO 35008KT 10SM FEW028 OVC065 19/16 A2982 RMK AO2 SLP118 T01890161
KCIU 251944Z AUTO VRB05KT 10SM SCT013 BKN028 OVC065 21/18 A2982 RMK AO2
KCIU 251918Z AUTO 23004KT 10SM BKN013 OVC023 20/18 A2982 RMK AO2
KCIU 251856Z AUTO 22005KT 10SM FEW011 BKN023 OVC028 20/18 A2983 RMK AO2 SLP121 T02000178
KCIU 251756Z AUTO 21006KT 10SM SCT013 OVC022 20/18 A2982 RMK AO2 SLP119 60000 T02000178 10200 20172 58008
KCIU 251704Z AUTO 22004KT 10SM FEW009 OVC020 19/17 A2984 RMK AO2
KCIU 251656Z AUTO 23006KT 10SM SCT007 BKN010 OVC020 19/17 A2984 RMK AO2 SLP125 T01940172
KCIU 251556Z AUTO VRB04KT 4SM BR OVC007 18/17 A2985 RMK AO2 CIG 006V012 SLP129 T01830172
KCIU 251505Z AUTO 20005KT 7SM OVC007 18/17 A2985 RMK AO2 CIG 003V012
KCIU 251456Z AUTO 24005KT 7SM BKN004 OVC009 18/17 A2986 RMK AO2 CIG 003V007 SLP132 60000 T01830172 57001
KCIU 251356Z AUTO 18006KT 5SM BR OVC004 18/18 A2985 RMK AO2 RAB45E56 SLP131 P0000 T01780178
KCIU 251338Z AUTO 23004KT 4SM BR OVC004 18/18 A2986 RMK AO2 CIG 002V008
KCIU 251256Z AUTO VRB03KT 3SM BR OVC002 18/17 A2987 RMK AO2 SLP136 T01780172
KCIU 251241Z AUTO VRB04KT 3SM BR OVC002 18/17 A2986 RMK AO2
KCIU 251156Z AUTO 21005KT 4SM BR OVC004 17/17 A2986 RMK AO2 RAB20E37 SLP135 P0000 60012 70018 T01720172 10172 20156 55003
KCIU 251056Z AUTO 19004KT 7SM OVC004 17/17 A2985 RMK AO2 RAE09 SLP133 P0001 T01670167
KCIU 250956Z AUTO 16005KT 4SM -RA BR OVC004 17/16 A2986 RMK AO2 CIG 002V007 SLP135 P0005 T01670161
KCIU 250942Z AUTO 16005KT 4SM -RA BR OVC004 17/16 A2986 RMK AO2 P0004
KCIU 250856Z AUTO 17005KT 5SM -RA BR OVC002 16/16 A2987 RMK AO2 SLP138 P0003 60006 T01610161 56020
KCIU 250756Z AUTO 17007KT 5SM -RA BR OVC002 16/16 A2989 RMK AO2 RAE33B52 SLP144 P0001 T01610161
KCIU 250656Z AUTO 16006KT 4SM -RA BR OVC002 16/16 A2990 RMK AO2 SLP149 P0002 T01610156
KCIU 250556Z AUTO 16005KT 5SM -RA BR OVC002 16/16 A2993 RMK AO2 SLP158 P0002 60006 T01560156 10156 20128 58025
KCIU 250456Z AUTO 15008KT 4SM -RA BR OVC002 16/15 A2996 RMK AO2 SLP169 P0001 T01560150 401560072
KCIU 250443Z AUTO 15007KT 4SM -RA BR OVC002 15/15 A2996 RMK AO2 P0000
KCIU 250356Z AUTO 14010KT 4SM -RA BR OVC004 15/14 A2998 RMK AO2 SLP177 P0003 T01500144
KCIU 250313Z AUTO 13011KT 7SM -RA BKN004 OVC008 14/14 A3000 RMK AO2 P0000
KCIU 250256Z AUTO 13012KT 4SM -RA BR OVC008 14/14 A3000 RMK AO2 RAB26 SLP187 P0000 60000 T01440139 56019
KCIU 250234Z AUTO 13012G19KT 5SM -RA BR OVC008 14/14 A3001 RMK AO2 RAB26 P0000
KCIU 250156Z AUTO 13015G19KT 10SM OVC010 14/13 A3002 RMK AO2 SLP192 T01440128
KCIU 250056Z AUTO 13012G17KT 10SM FEW006 BKN012 OVC017 13/12 A3005 RMK AO2 SLP204 T01330117
KCIU 250048Z AUTO 13012KT 10SM SCT006 OVC014 13/12 A3005 RMK AO2
KCIU 242356Z AUTO 12014KT 10SM OVC006 13/12 A3006 RMK AO2 RAE12 SLP210 P0000 60000 T01280122 10156 20128 56012
KCIU 242256Z AUTO 13015KT 4SM -RA BR OVC008 13/12 A3007 RMK AO2 PK WND 13026/2244 RAB43 SLP213 P0000 T01280122
KCIU 242231Z AUTO 13016G23KT 6SM BR OVC008 13/12 A3007 RMK AO2
KCIU 242156Z AUTO 13019G26KT 10SM OVC012 13/12 A3008 RMK AO2 PK WND 13028/2135 SLP217 T01330117
KCIU 242056Z AUTO 13017KT 10SM OVC014 14/12 A3010 RMK AO2 PK WND 14027/2010 SLP222 T01440117 56026
KCIU 242015Z AUTO 13017G27KT 10SM OVC014 15/12 A3011 RMK AO2 PK WND 14027/2010
KCIU 241956Z AUTO 14017KT 10SM OVC016 15/12 A3012 RMK AO2 PK WND 13026/1943 SLP228 T01500117
KCIU 241942Z AUTO 14021G26KT 10SM OVC016 15/12 A3012 RMK AO2 PK WND 14026/1940
KCIU 241921Z AUTO 13019G23KT 10SM OVC014 16/12 A3013 RMK AO2
KCIU 241856Z AUTO 13018G25KT 10SM OVC016 15/12 A3015 RMK AO2 PK WND 14026/1804 SLP239 T01500117
KCIU 241756Z AUTO 14017KT 10SM OVC016 16/12 A3018 RMK AO2 SLP248 T01560117 10156 20083 58026
KCIU 241656Z AUTO 14020G25KT 10SM OVC016 14/12 A3021 RMK AO2 PK WND 13026/1636 SLP261 T01440117